UPSVAC Airport Information Service

Albany Southwest Georgia Regional Airport

ICAO: KABY Country: United States
Latitude: 31.5355 Longitude: -84.1944
Latest Arrival : UPSJUMP (KSDF-KABY) Latest Departure : UPSJUMP (KABY-KSDF)


WX CaptureLIVE
Data provided by noaa.gov | Fetched at 17:18:07

METAR : KABY 191653Z VRB06KT 10SM FEW010 BKN016 OVC100 31/23 A3006 RMK AO2 SLP176 T03060233

TAF : KABY 191135Z 1912/2012 07005KT P6SM VCSH OVC005 FM191600 10006KT P6SM -SHRA BKN015 FM191800 11007KT P6SM SHRA VCTS BKN035CB FM200200 10007KT P6SM BKN040 FM200400 10006KT P6SM BKN015


Runway Data for KABY
Data provided by openaviationdata.com

Runway ID Mag Var Hdg Length Elevation Surface ILS Freq ILS Id ILS Slope
4 -2 44° 6606 ft 197 ft Asphalt 108.5 IABY 3
16 -2 164° 5210 ft 197 ft Asphalt -- -- --
22 -2 224° 6606 ft 197 ft Asphalt -- -- --
34 -2 344° 5210 ft 197 ft Asphalt -- -- --

Albany Southwest Georgia Regional Airport, United States
Use only for reference purposes



Not for navigational purposes.